AWG284 LRTR-LROP
Flight info
| Callsign | AWG284 |
|---|---|
| Flight time | 0h 36m |
| Altitude | 31000 |
| Route | DITAX DCT LAMIT DCT TOSVI |
| Aircraft | A20N/M-SDE2E3FGHIRWXY/LB1 |
Departure
| Time | 2026-04-21 21:30 |
|---|---|
| Airport | Timișoara Traian Vuia International Airport (LRTR) |
Arrival
| Time | 2026-04-21 22:07 |
|---|---|
| Airport | Bucharest Henri Coandă International Airport (LROP) |
| Time | Latitude | Longitude | Altitude | Speed | Heading |
|---|---|---|---|---|---|
| 2026-04-21 21:17 | 45.81101 | 21.32034 | 338 ft | 0 kts | 199° |
| 2026-04-21 21:24 | 45.81118 | 21.32053 | 335 ft | 3 kts | 247° |
| 2026-04-21 21:25 | 45.81121 | 21.32071 | 337 ft | 3 kts | 274° |
| 2026-04-21 21:25 | 45.81119 | 21.32089 | 333 ft | 0 kts | 297° |
| 2026-04-21 21:27 | 45.81119 | 21.32087 | 333 ft | 2 kts | 297° |
| 2026-04-21 21:27 | 45.81143 | 21.32055 | 334 ft | 8 kts | 306° |
| 2026-04-21 21:27 | 45.81165 | 21.31966 | 336 ft | 10 kts | 289° |
| 2026-04-21 21:27 | 45.81189 | 21.31874 | 338 ft | 10 kts | 291° |
| 2026-04-21 21:28 | 45.81215 | 21.31775 | 334 ft | 11 kts | 289° |
| 2026-04-21 21:28 | 45.81244 | 21.31658 | 336 ft | 13 kts | 289° |
| 2026-04-21 21:28 | 45.81396 | 21.31627 | 334 ft | 13 kts | 20° |
| 2026-04-21 21:29 | 45.81433 | 21.31646 | 336 ft | 1 kts | 19° |
| 2026-04-21 21:29 | 45.81458 | 21.31660 | 335 ft | 8 kts | 26° |
| 2026-04-21 21:29 | 45.81494 | 21.31744 | 335 ft | 13 kts | 101° |
| 2026-04-21 21:29 | 45.81449 | 21.31930 | 335 ft | 38 kts | 109° |
| 2026-04-21 21:30 | 45.81281 | 21.32600 | 337 ft | 104 kts | 110° |
| 2026-04-21 21:30 | 45.80966 | 21.33863 | 338 ft | 165 kts | 109° |
| 2026-04-21 21:30 | 45.80557 | 21.35479 | 830 ft | 171 kts | 109° |
| 2026-04-21 21:30 | 45.80158 | 21.37047 | 1657 ft | 168 kts | 106° |
| 2026-04-21 21:31 | 45.79733 | 21.38748 | 2021 ft | 194 kts | 106° |
| 2026-04-21 21:31 | 45.79248 | 21.40704 | 2271 ft | 224 kts | 107° |
| 2026-04-21 21:31 | 45.78693 | 21.42930 | 2579 ft | 250 kts | 107° |
| 2026-04-21 21:31 | 45.78045 | 21.45303 | 3293 ft | 258 kts | 111° |
| 2026-04-21 21:32 | 45.77297 | 21.47634 | 4074 ft | 261 kts | 114° |
| 2026-04-21 21:32 | 45.76517 | 21.50009 | 4846 ft | 263 kts | 110° |
| 2026-04-21 21:32 | 45.75862 | 21.52477 | 5584 ft | 266 kts | 109° |
| 2026-04-21 21:32 | 45.75234 | 21.54970 | 6300 ft | 271 kts | 108° |
| 2026-04-21 21:33 | 45.74587 | 21.57547 | 7011 ft | 275 kts | 108° |
| 2026-04-21 21:33 | 45.73938 | 21.60118 | 7739 ft | 279 kts | 109° |
| 2026-04-21 21:33 | 45.73269 | 21.62753 | 8518 ft | 282 kts | 109° |
| 2026-04-21 21:33 | 45.72586 | 21.65425 | 9314 ft | 286 kts | 109° |
| 2026-04-21 21:34 | 45.71901 | 21.68095 | 10093 ft | 290 kts | 109° |
| 2026-04-21 21:34 | 45.71188 | 21.70876 | 10572 ft | 305 kts | 109° |
| 2026-04-21 21:34 | 45.70439 | 21.73807 | 10870 ft | 326 kts | 109° |
| 2026-04-21 21:34 | 45.69646 | 21.76919 | 11354 ft | 338 kts | 109° |
| 2026-04-21 21:35 | 45.68835 | 21.80101 | 12034 ft | 345 kts | 109° |
| 2026-04-21 21:35 | 45.67997 | 21.83375 | 12748 ft | 351 kts | 110° |
| 2026-04-21 21:35 | 45.67156 | 21.86648 | 13483 ft | 355 kts | 110° |
| 2026-04-21 21:35 | 45.66293 | 21.89991 | 14168 ft | 360 kts | 110° |
| 2026-04-21 21:36 | 45.65427 | 21.93341 | 14809 ft | 364 kts | 110° |
| 2026-04-21 21:36 | 45.64537 | 21.96768 | 15460 ft | 368 kts | 110° |
| 2026-04-21 21:36 | 45.63639 | 22.00220 | 16084 ft | 371 kts | 110° |
| 2026-04-21 21:36 | 45.62740 | 22.03665 | 16707 ft | 375 kts | 110° |
| 2026-04-21 21:37 | 45.61821 | 22.07179 | 17357 ft | 378 kts | 110° |
| 2026-04-21 21:37 | 45.60900 | 22.10699 | 17994 ft | 382 kts | 110° |
| 2026-04-21 21:37 | 45.59960 | 22.14284 | 18603 ft | 386 kts | 110° |
| 2026-04-21 21:37 | 45.59018 | 22.17868 | 19174 ft | 389 kts | 110° |
| 2026-04-21 21:38 | 45.58058 | 22.21522 | 19733 ft | 392 kts | 110° |
| 2026-04-21 21:38 | 45.57102 | 22.25153 | 20317 ft | 395 kts | 110° |
| 2026-04-21 21:38 | 45.56125 | 22.28857 | 20886 ft | 398 kts | 110° |
| 2026-04-21 21:38 | 45.55150 | 22.32546 | 21430 ft | 401 kts | 110° |
| 2026-04-21 21:39 | 45.54158 | 22.36294 | 21980 ft | 404 kts | 111° |
| 2026-04-21 21:39 | 45.53151 | 22.40091 | 22513 ft | 408 kts | 111° |
| 2026-04-21 21:39 | 45.52146 | 22.43879 | 23038 ft | 411 kts | 111° |
| 2026-04-21 21:39 | 45.51126 | 22.47713 | 23559 ft | 414 kts | 111° |
| 2026-04-21 21:40 | 45.50106 | 22.51542 | 23985 ft | 417 kts | 111° |
| 2026-04-21 21:40 | 45.49072 | 22.55415 | 24345 ft | 422 kts | 111° |
| 2026-04-21 21:40 | 45.48019 | 22.59355 | 24698 ft | 427 kts | 111° |
| 2026-04-21 21:40 | 45.46951 | 22.63345 | 25052 ft | 431 kts | 111° |
| 2026-04-21 21:41 | 45.45882 | 22.67331 | 25387 ft | 436 kts | 111° |
| 2026-04-21 21:41 | 45.44786 | 22.71413 | 25735 ft | 440 kts | 111° |
| 2026-04-21 21:41 | 45.43695 | 22.75467 | 26065 ft | 444 kts | 112° |
| 2026-04-21 21:41 | 45.42577 | 22.79617 | 26382 ft | 449 kts | 112° |
| 2026-04-21 21:42 | 45.41459 | 22.83757 | 26719 ft | 453 kts | 112° |
| 2026-04-21 21:42 | 45.40325 | 22.87948 | 27042 ft | 457 kts | 112° |
| 2026-04-21 21:42 | 45.39171 | 22.92206 | 27353 ft | 461 kts | 112° |
| 2026-04-21 21:42 | 45.38020 | 22.96445 | 27641 ft | 465 kts | 112° |
| 2026-04-21 21:43 | 45.36842 | 23.00776 | 27947 ft | 469 kts | 112° |
| 2026-04-21 21:43 | 45.35666 | 23.05090 | 28242 ft | 472 kts | 113° |
| 2026-04-21 21:43 | 45.34468 | 23.09480 | 28534 ft | 476 kts | 113° |
| 2026-04-21 21:43 | 45.33266 | 23.13903 | 28806 ft | 480 kts | 112° |
| 2026-04-21 21:44 | 45.32098 | 23.18335 | 29106 ft | 483 kts | 112° |
| 2026-04-21 21:44 | 45.30910 | 23.22827 | 29394 ft | 486 kts | 112° |
| 2026-04-21 21:44 | 45.29714 | 23.27288 | 29672 ft | 490 kts | 113° |
| 2026-04-21 21:44 | 45.28477 | 23.31844 | 29947 ft | 493 kts | 113° |
| 2026-04-21 21:45 | 45.27228 | 23.36403 | 30228 ft | 496 kts | 114° |
| 2026-04-21 21:45 | 45.25979 | 23.40936 | 30448 ft | 499 kts | 114° |
| 2026-04-21 21:45 | 45.24703 | 23.45545 | 30763 ft | 499 kts | 114° |
| 2026-04-21 21:45 | 45.23435 | 23.50109 | 31023 ft | 499 kts | 114° |
| 2026-04-21 21:46 | 45.22164 | 23.54679 | 31079 ft | 491 kts | 114° |
| 2026-04-21 21:46 | 45.19620 | 23.63773 | 31072 ft | 500 kts | 114° |
| 2026-04-21 21:47 | 45.17053 | 23.72940 | 31067 ft | 502 kts | 114° |
| 2026-04-21 21:47 | 45.14472 | 23.82124 | 31065 ft | 503 kts | 114° |
| 2026-04-21 21:48 | 45.11909 | 23.91207 | 31065 ft | 485 kts | 114° |
| 2026-04-21 21:48 | 45.10644 | 23.95662 | 30651 ft | 486 kts | 115° |
| 2026-04-21 21:48 | 45.09385 | 24.00087 | 29721 ft | 493 kts | 115° |
| 2026-04-21 21:48 | 45.08092 | 24.04640 | 28872 ft | 495 kts | 114° |
| 2026-04-21 21:49 | 45.06824 | 24.09108 | 28241 ft | 492 kts | 114° |
| 2026-04-21 21:49 | 45.05543 | 24.13613 | 27708 ft | 487 kts | 114° |
| 2026-04-21 21:49 | 45.04300 | 24.17979 | 27422 ft | 477 kts | 115° |
| 2026-04-21 21:49 | 45.03054 | 24.22336 | 26860 ft | 474 kts | 115° |
| 2026-04-21 21:50 | 45.01809 | 24.26674 | 26300 ft | 471 kts | 115° |
| 2026-04-21 21:50 | 45.00594 | 24.30902 | 25792 ft | 468 kts | 115° |
| 2026-04-21 21:50 | 44.99364 | 24.35179 | 25302 ft | 464 kts | 115° |
| 2026-04-21 21:50 | 44.98158 | 24.39364 | 24807 ft | 460 kts | 115° |
| 2026-04-21 21:51 | 44.96956 | 24.43530 | 24346 ft | 457 kts | 115° |
| 2026-04-21 21:51 | 44.95757 | 24.47675 | 23863 ft | 454 kts | 115° |
| 2026-04-21 21:51 | 44.94574 | 24.51758 | 23333 ft | 451 kts | 115° |
| 2026-04-21 21:51 | 44.93387 | 24.55847 | 22830 ft | 446 kts | 115° |
| 2026-04-21 21:52 | 44.92229 | 24.59832 | 22337 ft | 441 kts | 115° |
| 2026-04-21 21:52 | 44.91063 | 24.63834 | 21856 ft | 435 kts | 115° |
| 2026-04-21 21:52 | 44.89923 | 24.67740 | 21394 ft | 430 kts | 114° |
| 2026-04-21 21:52 | 44.88786 | 24.71629 | 20927 ft | 425 kts | 114° |
| 2026-04-21 21:53 | 44.87656 | 24.75487 | 20466 ft | 420 kts | 114° |
| 2026-04-21 21:53 | 44.86556 | 24.79237 | 20021 ft | 415 kts | 114° |
| 2026-04-21 21:53 | 44.85461 | 24.82963 | 19580 ft | 410 kts | 114° |
| 2026-04-21 21:53 | 44.84362 | 24.86696 | 19130 ft | 405 kts | 114° |
| 2026-04-21 21:54 | 44.83299 | 24.90301 | 18704 ft | 399 kts | 114° |
| 2026-04-21 21:54 | 44.82240 | 24.93887 | 18270 ft | 394 kts | 114° |
| 2026-04-21 21:54 | 44.81198 | 24.97410 | 17740 ft | 390 kts | 114° |
| 2026-04-21 21:54 | 44.80148 | 25.00956 | 17171 ft | 387 kts | 113° |
| 2026-04-21 21:55 | 44.79124 | 25.04413 | 16646 ft | 384 kts | 113° |
| 2026-04-21 21:55 | 44.78097 | 25.07873 | 16135 ft | 380 kts | 113° |
| 2026-04-21 21:55 | 44.77076 | 25.11309 | 15618 ft | 376 kts | 113° |
| 2026-04-21 21:55 | 44.76077 | 25.14668 | 15137 ft | 372 kts | 113° |
| 2026-04-21 21:56 | 44.75075 | 25.18030 | 14653 ft | 369 kts | 113° |
| 2026-04-21 21:56 | 44.74099 | 25.21299 | 14175 ft | 365 kts | 113° |
| 2026-04-21 21:56 | 44.73114 | 25.24596 | 13678 ft | 362 kts | 113° |
| 2026-04-21 21:56 | 44.72138 | 25.27861 | 12996 ft | 362 kts | 113° |
| 2026-04-21 21:57 | 44.71171 | 25.31096 | 12695 ft | 352 kts | 113° |
| 2026-04-21 21:57 | 44.70244 | 25.34187 | 12505 ft | 339 kts | 113° |
| 2026-04-21 21:57 | 44.69336 | 25.37200 | 12333 ft | 327 kts | 113° |
| 2026-04-21 21:57 | 44.68472 | 25.40061 | 12164 ft | 316 kts | 113° |
| 2026-04-21 21:58 | 44.67614 | 25.42892 | 11809 ft | 311 kts | 113° |
| 2026-04-21 21:58 | 44.66767 | 25.45690 | 11445 ft | 308 kts | 113° |
| 2026-04-21 21:58 | 44.65934 | 25.48441 | 11046 ft | 303 kts | 113° |
| 2026-04-21 21:58 | 44.65124 | 25.51116 | 10494 ft | 300 kts | 113° |
| 2026-04-21 21:59 | 44.64309 | 25.53810 | 9946 ft | 297 kts | 112° |
| 2026-04-21 21:59 | 44.63500 | 25.56481 | 9345 ft | 294 kts | 112° |
| 2026-04-21 21:59 | 44.62708 | 25.59097 | 8751 ft | 291 kts | 112° |
| 2026-04-21 21:59 | 44.61913 | 25.61719 | 8189 ft | 287 kts | 112° |
| 2026-04-21 22:00 | 44.61140 | 25.64267 | 7632 ft | 284 kts | 112° |
| 2026-04-21 22:00 | 44.60359 | 25.66838 | 7082 ft | 281 kts | 112° |
| 2026-04-21 22:00 | 44.59604 | 25.69321 | 6548 ft | 278 kts | 112° |
| 2026-04-21 22:00 | 44.58844 | 25.71816 | 5986 ft | 275 kts | 112° |
| 2026-04-21 22:01 | 44.58096 | 25.74275 | 5457 ft | 271 kts | 112° |
| 2026-04-21 22:01 | 44.57382 | 25.76611 | 5269 ft | 251 kts | 112° |
| 2026-04-21 22:01 | 44.56714 | 25.78780 | 5112 ft | 231 kts | 112° |
| 2026-04-21 22:01 | 44.56105 | 25.80773 | 4951 ft | 213 kts | 110° |
| 2026-04-21 22:02 | 44.55776 | 25.82677 | 4775 ft | 196 kts | 91° |
| 2026-04-21 22:02 | 44.55829 | 25.84503 | 4639 ft | 179 kts | 82° |
| 2026-04-21 22:02 | 44.55981 | 25.86176 | 4447 ft | 166 kts | 81° |
| 2026-04-21 22:02 | 44.56105 | 25.87721 | 4273 ft | 152 kts | 82° |
| 2026-04-21 22:03 | 44.56220 | 25.89157 | 3953 ft | 148 kts | 82° |
| 2026-04-21 22:03 | 44.56336 | 25.90621 | 3469 ft | 153 kts | 83° |
| 2026-04-21 22:03 | 44.56452 | 25.92108 | 2964 ft | 157 kts | 84° |
| 2026-04-21 22:03 | 44.56568 | 25.93636 | 2534 ft | 155 kts | 84° |
| 2026-04-21 22:04 | 44.56638 | 25.94608 | 2365 ft | 146 kts | 85° |
| 2026-04-21 22:04 | 44.56769 | 25.96411 | 2117 ft | 136 kts | 84° |
| 2026-04-21 22:04 | 44.56836 | 25.97304 | 1986 ft | 136 kts | 84° |
| 2026-04-21 22:04 | 44.56935 | 25.98615 | 1811 ft | 136 kts | 84° |
| 2026-04-21 22:05 | 44.57035 | 25.99948 | 1621 ft | 137 kts | 84° |
| 2026-04-21 22:05 | 44.57131 | 26.01253 | 1435 ft | 136 kts | 83° |
| 2026-04-21 22:05 | 44.57231 | 26.02581 | 1219 ft | 134 kts | 84° |
| 2026-04-21 22:05 | 44.57324 | 26.03829 | 1034 ft | 127 kts | 83° |
| 2026-04-21 22:06 | 44.57416 | 26.05059 | 841 ft | 127 kts | 83° |
| 2026-04-21 22:06 | 44.57509 | 26.06305 | 677 ft | 129 kts | 84° |
| 2026-04-21 22:06 | 44.57603 | 26.07571 | 481 ft | 131 kts | 84° |
| 2026-04-21 22:06 | 44.57695 | 26.08856 | 328 ft | 130 kts | 84° |
| 2026-04-21 22:07 | 44.57772 | 26.09908 | 324 ft | 88 kts | 83° |
| 2026-04-21 22:07 | 44.57828 | 26.10636 | 323 ft | 41 kts | 84° |
| 2026-04-21 22:07 | 44.57809 | 26.10966 | 324 ft | 30 kts | 107° |
| 2026-04-21 22:07 | 44.57764 | 26.11117 | 324 ft | 10 kts | 114° |
| 2026-04-21 22:08 | 44.57761 | 26.11127 | 325 ft | 0 kts | 114° |
| 2026-04-21 22:08 | 44.57759 | 26.11134 | 325 ft | 3 kts | 114° |
| 2026-04-21 22:08 | 44.57730 | 26.11168 | 325 ft | 7 kts | 168° |
| 2026-04-21 22:08 | 44.57699 | 26.11233 | 325 ft | 12 kts | 84° |
| 2026-04-21 22:09 | 44.57707 | 26.11346 | 325 ft | 1 kts | 84° |
| 2026-04-21 22:09 | 44.57708 | 26.11350 | 325 ft | 0 kts | 84° |
| 2026-04-21 22:09 | 44.57711 | 26.11353 | 325 ft | 1 kts | 36° |
| 2026-04-21 22:09 | 44.57715 | 26.11340 | 322 ft | 3 kts | 258° |
| 2026-04-21 22:10 | 44.57703 | 26.11265 | 325 ft | 13 kts | 257° |
| 2026-04-21 22:10 | 44.57689 | 26.11098 | 325 ft | 20 kts | 264° |
| 2026-04-21 22:10 | 44.57675 | 26.10909 | 325 ft | 19 kts | 264° |
| 2026-04-21 22:10 | 44.57661 | 26.10725 | 325 ft | 19 kts | 264° |
| 2026-04-21 22:11 | 44.57647 | 26.10544 | 325 ft | 18 kts | 264° |
| 2026-04-21 22:11 | 44.57634 | 26.10365 | 325 ft | 18 kts | 264° |
| 2026-04-21 22:11 | 44.57621 | 26.10192 | 325 ft | 18 kts | 264° |
| 2026-04-21 22:11 | 44.57608 | 26.10019 | 325 ft | 18 kts | 264° |
| 2026-04-21 22:12 | 44.57588 | 26.09856 | 324 ft | 16 kts | 234° |
| 2026-04-21 22:12 | 44.57487 | 26.09843 | 324 ft | 15 kts | 174° |
| 2026-04-21 22:12 | 44.57383 | 26.09858 | 325 ft | 15 kts | 174° |
| 2026-04-21 22:12 | 44.57282 | 26.09873 | 325 ft | 15 kts | 174° |
| 2026-04-21 22:13 | 44.57181 | 26.09888 | 325 ft | 14 kts | 174° |
| 2026-04-21 22:13 | 44.57081 | 26.09903 | 324 ft | 14 kts | 174° |
| 2026-04-21 22:13 | 44.57016 | 26.09841 | 324 ft | 12 kts | 261° |
| 2026-04-21 22:13 | 44.57006 | 26.09716 | 323 ft | 15 kts | 264° |
| 2026-04-21 22:14 | 44.56995 | 26.09568 | 325 ft | 15 kts | 265° |
| 2026-04-21 22:14 | 44.56984 | 26.09422 | 325 ft | 15 kts | 262° |
| 2026-04-21 22:14 | 44.56972 | 26.09278 | 325 ft | 15 kts | 264° |
| 2026-04-21 22:14 | 44.56961 | 26.09134 | 323 ft | 15 kts | 264° |
| 2026-04-21 22:15 | 44.56950 | 26.08990 | 325 ft | 15 kts | 264° |
| 2026-04-21 22:15 | 44.56939 | 26.08845 | 325 ft | 15 kts | 264° |
| 2026-04-21 22:15 | 44.56885 | 26.08810 | 324 ft | 4 kts | 174° |
| 2026-04-21 22:15 | 44.56883 | 26.08810 | 324 ft | 0 kts | 173° |